createdAt,value
2023-05-05T00:01:31.064Z,100.00
2023-05-05T00:03:58.008Z,100.00
2023-05-05T00:06:25.078Z,100.00
2023-05-05T00:08:51.897Z,100.00
2023-05-05T00:11:18.793Z,100.00
2023-05-05T00:13:45.864Z,100.00
2023-05-05T00:16:12.687Z,100.00
2023-05-05T00:18:39.619Z,100.00
2023-05-05T00:21:06.963Z,100.00
2023-05-05T00:23:33.913Z,100.00
2023-05-05T00:26:00.910Z,100.00
2023-05-05T00:28:27.912Z,100.00
2023-05-05T00:30:54.921Z,100.00
2023-05-05T00:33:22.177Z,100.00
2023-05-05T00:35:49.172Z,100.00
2023-05-05T00:38:16.123Z,100.00
2023-05-05T00:40:43.245Z,100.00
2023-05-05T00:43:10.243Z,100.00
2023-05-05T00:45:39.147Z,100.00
2023-05-05T00:48:06.714Z,100.00
2023-05-05T00:50:35.007Z,100.00
2023-05-05T00:53:04.121Z,100.00
2023-05-05T00:55:31.828Z,100.00
2023-05-05T00:57:59.796Z,100.00
2023-05-05T01:03:02.424Z,100.00
2023-05-05T01:05:42.309Z,100.00
2023-05-05T01:08:44.066Z,100.00
2023-05-05T01:11:31.202Z,100.00
2023-05-05T01:14:10.140Z,100.00
2023-05-05T01:16:41.745Z,100.00
2023-05-05T01:19:38.551Z,100.00
2023-05-05T01:22:09.142Z,100.00
2023-05-05T01:24:45.271Z,100.00
2023-05-05T01:27:34.345Z,100.00
2023-05-05T01:30:10.770Z,100.00
2023-05-05T01:32:48.091Z,100.00
2023-05-05T01:35:37.983Z,100.00
2023-05-05T01:38:21.856Z,100.00
2023-05-05T01:40:56.457Z,100.00
2023-05-05T01:43:24.512Z,100.00
2023-05-05T01:45:53.393Z,100.00
2023-05-05T01:48:22.397Z,100.00
2023-05-05T01:50:52.312Z,100.00
2023-05-05T01:53:22.843Z,100.00
2023-05-05T01:55:50.879Z,100.00
2023-05-05T01:58:18.608Z,100.00
2023-05-05T02:00:47.304Z,100.00
2023-05-05T02:03:15.984Z,100.00
2023-05-05T02:05:44.726Z,100.00
2023-05-05T02:08:12.941Z,100.00
2023-05-05T02:10:41.128Z,100.00
2023-05-05T02:13:10.792Z,100.00
2023-05-05T02:15:38.770Z,100.00
2023-05-05T02:18:06.672Z,100.00
2023-05-05T02:20:34.282Z,100.00
2023-05-05T02:23:01.464Z,100.00
2023-05-05T02:25:37.252Z,100.00
2023-05-05T02:28:06.312Z,100.00
2023-05-05T02:30:37.744Z,100.00
2023-05-05T02:33:11.609Z,100.00
2023-05-05T02:35:41.153Z,100.00
2023-05-05T02:38:17.460Z,100.00
2023-05-05T02:40:46.850Z,100.00
2023-05-05T02:43:18.411Z,100.00
2023-05-05T02:45:45.903Z,100.00
2023-05-05T02:48:15.701Z,100.00
2023-05-05T02:50:42.628Z,98.87
2023-05-05T02:53:09.755Z,99.46
2023-05-05T02:55:44.031Z,99.96
2023-05-05T02:58:26.082Z,100.00
2023-05-05T03:01:01.662Z,100.00
2023-05-05T03:03:59.773Z,100.00
2023-05-05T03:06:28.863Z,100.00
2023-05-05T03:09:08.254Z,100.00
2023-05-05T03:12:13.111Z,100.00
2023-05-05T03:14:43.408Z,100.00
2023-05-05T03:17:12.299Z,100.00
2023-05-05T03:19:43.278Z,100.00
2023-05-05T03:22:10.975Z,100.00
2023-05-05T03:24:37.909Z,100.00
2023-05-05T03:27:04.848Z,100.00
2023-05-05T03:29:31.808Z,100.00
2023-05-05T03:31:59.508Z,100.00
2023-05-05T03:34:26.334Z,100.00
2023-05-05T03:36:53.354Z,100.00
2023-05-05T03:39:20.150Z,100.00
2023-05-05T03:41:47.299Z,100.00
2023-05-05T03:44:14.136Z,100.00
2023-05-05T03:46:40.936Z,100.00
2023-05-05T03:49:09.919Z,100.00
2023-05-05T03:51:37.548Z,99.25
2023-05-05T03:54:04.738Z,98.88
2023-05-05T03:56:31.828Z,98.99
2023-05-05T03:58:58.933Z,97.33
2023-05-05T04:01:25.888Z,96.13
2023-05-05T04:03:53.035Z,95.72
2023-05-05T04:06:19.957Z,96.39
2023-05-05T04:08:46.789Z,97.43
2023-05-05T04:11:13.690Z,95.86
2023-05-05T04:13:40.599Z,94.98
2023-05-05T04:16:08.988Z,94.91
2023-05-05T04:18:36.350Z,93.45
2023-05-05T04:21:03.384Z,94.08
2023-05-05T04:23:30.301Z,93.04
2023-05-05T04:25:57.680Z,93.39
2023-05-05T04:28:24.660Z,92.80
2023-05-05T04:30:51.735Z,91.01
2023-05-05T04:33:18.673Z,91.18
2023-05-05T04:35:45.661Z,91.16
2023-05-05T04:38:12.690Z,90.03
2023-05-05T04:40:41.129Z,88.67
2023-05-05T04:43:08.019Z,89.35
2023-05-05T04:45:34.824Z,88.81
2023-05-05T04:48:01.988Z,88.94
2023-05-05T04:50:28.878Z,87.03
2023-05-05T04:52:56.504Z,85.95
2023-05-05T04:55:23.490Z,85.72
2023-05-05T04:57:50.342Z,81.48
2023-05-05T05:00:17.448Z,81.50
2023-05-05T05:02:44.722Z,81.05
2023-05-05T05:05:11.646Z,83.86
2023-05-05T05:07:38.417Z,82.95
2023-05-05T05:10:06.034Z,84.08
2023-05-05T05:12:33.061Z,83.81
2023-05-05T05:14:59.906Z,82.11
2023-05-05T05:17:27.163Z,82.84
2023-05-05T05:19:55.472Z,81.54
2023-05-05T05:22:22.398Z,81.17
2023-05-05T05:24:49.257Z,80.79
2023-05-05T05:27:16.273Z,78.92
2023-05-05T05:29:43.891Z,78.69
2023-05-05T05:32:11.019Z,78.27
2023-05-05T05:34:37.876Z,77.31
2023-05-05T05:37:04.718Z,74.86
2023-05-05T05:39:31.589Z,73.80
2023-05-05T05:41:58.400Z,75.04
2023-05-05T05:44:25.172Z,74.01
2023-05-05T05:46:52.134Z,71.98
2023-05-05T05:49:18.952Z,70.86
2023-05-05T05:51:45.766Z,70.90
2023-05-05T05:54:12.719Z,69.40
2023-05-05T05:56:39.754Z,67.27
2023-05-05T05:59:08.831Z,68.21
2023-05-05T06:01:35.896Z,67.78
2023-05-05T06:04:02.794Z,66.28
2023-05-05T06:06:29.755Z,66.54
2023-05-05T06:08:56.706Z,63.99
2023-05-05T06:11:23.534Z,63.48
2023-05-05T06:13:50.736Z,62.71
2023-05-05T06:16:17.635Z,62.04
2023-05-05T06:18:44.549Z,62.91
2023-05-05T06:21:12.340Z,61.77
2023-05-05T06:23:39.448Z,62.64
2023-05-05T06:26:06.409Z,60.81
2023-05-05T06:28:33.358Z,59.70
2023-05-05T06:33:27.268Z,58.87
2023-05-05T06:35:54.490Z,58.50
2023-05-05T06:38:21.858Z,58.47
2023-05-05T06:40:51.843Z,59.80
2023-05-05T06:43:18.811Z,60.52
2023-05-05T06:45:46.253Z,59.52
2023-05-05T06:48:13.182Z,61.24
2023-05-05T06:50:40.041Z,59.32
2023-05-05T06:53:06.956Z,60.39
2023-05-05T06:55:33.816Z,58.62
2023-05-05T06:58:01.038Z,58.50
2023-05-05T07:00:27.929Z,58.38
2023-05-05T07:02:54.835Z,58.37
2023-05-05T07:05:21.935Z,58.20
2023-05-05T07:07:53.912Z,58.52
2023-05-05T07:10:22.796Z,56.75
2023-05-05T07:12:50.460Z,57.23
2023-05-05T07:15:27.384Z,57.46
2023-05-05T07:17:56.723Z,57.79
2023-05-05T07:20:24.285Z,58.22
2023-05-05T07:22:51.312Z,57.55
2023-05-05T07:25:18.380Z,60.70
2023-05-05T07:27:45.584Z,59.51
2023-05-05T07:30:15.531Z,57.40
2023-05-05T07:32:45.090Z,56.52
2023-05-05T07:35:12.072Z,57.56
2023-05-05T07:37:38.850Z,56.19
2023-05-05T07:40:06.563Z,53.69
2023-05-05T07:42:33.520Z,53.80
2023-05-05T07:45:00.905Z,53.95
2023-05-05T07:47:27.721Z,52.83
2023-05-05T07:49:54.952Z,52.38
2023-05-05T07:52:33.209Z,51.74
2023-05-05T07:55:08.850Z,51.02
2023-05-05T07:57:35.722Z,50.48
2023-05-05T08:00:02.927Z,50.82
2023-05-05T08:02:30.151Z,52.37
2023-05-05T08:04:57.111Z,51.15
2023-05-05T08:07:24.021Z,52.42
2023-05-05T08:09:51.018Z,55.55
2023-05-05T08:12:19.270Z,55.96
2023-05-05T08:14:46.108Z,55.04
2023-05-05T08:17:12.975Z,53.71
2023-05-05T08:19:39.866Z,53.38
2023-05-05T08:22:06.711Z,52.31
2023-05-05T08:24:33.618Z,51.25
2023-05-05T08:27:00.856Z,53.57
2023-05-05T08:29:27.759Z,52.84
2023-05-05T08:31:54.762Z,53.96
2023-05-05T08:34:21.529Z,56.41
2023-05-05T08:36:50.523Z,56.48
2023-05-05T08:39:17.555Z,56.11
2023-05-05T08:41:44.603Z,54.47
2023-05-05T08:44:11.851Z,52.56
2023-05-05T08:46:40.119Z,53.24
2023-05-05T08:49:14.077Z,50.97
2023-05-05T08:51:44.508Z,49.88
2023-05-05T08:54:18.032Z,48.34
2023-05-05T08:56:47.540Z,47.21
2023-05-05T08:59:15.776Z,45.96
2023-05-05T09:01:44.560Z,46.66
2023-05-05T09:04:11.551Z,47.12
2023-05-05T09:06:38.593Z,46.04
2023-05-05T09:09:06.817Z,45.74
2023-05-05T09:11:35.545Z,48.46
2023-05-05T09:14:02.512Z,45.60
2023-05-05T09:16:29.551Z,45.47
2023-05-05T09:19:04.134Z,48.01
2023-05-05T09:21:32.339Z,48.55
2023-05-05T09:24:10.051Z,47.20
2023-05-05T09:26:39.727Z,47.68
2023-05-05T09:29:06.810Z,45.89
2023-05-05T09:31:35.222Z,44.35
2023-05-05T09:34:13.754Z,43.16
2023-05-05T09:36:47.623Z,43.55
2023-05-05T09:39:20.334Z,44.53
2023-05-05T09:41:47.417Z,45.34
2023-05-05T09:44:17.632Z,44.60
2023-05-05T09:46:55.425Z,42.69
2023-05-05T09:49:27.180Z,44.20
2023-05-05T09:51:55.239Z,46.32
2023-05-05T09:54:29.812Z,48.94
2023-05-05T09:56:57.493Z,46.81
2023-05-05T09:59:24.822Z,47.20
2023-05-05T10:01:52.473Z,45.93
2023-05-05T10:04:28.169Z,44.27
2023-05-05T10:06:56.899Z,45.15
2023-05-05T10:09:28.474Z,42.59
2023-05-05T10:12:00.054Z,41.98
2023-05-05T10:14:27.738Z,42.68
2023-05-05T10:16:55.742Z,44.10
2023-05-05T10:19:24.353Z,42.46
2023-05-05T10:21:53.443Z,43.80
2023-05-05T10:24:23.019Z,43.29
2023-05-05T10:26:52.124Z,43.89
2023-05-05T10:29:57.213Z,46.70
2023-05-05T10:32:55.953Z,46.89
2023-05-05T10:35:26.697Z,46.09
2023-05-05T10:37:54.715Z,47.85
2023-05-05T10:40:25.308Z,46.41
2023-05-05T10:42:54.414Z,44.15
2023-05-05T10:45:21.542Z,44.61
2023-05-05T10:47:51.306Z,43.80
2023-05-05T10:50:33.585Z,44.03
2023-05-05T10:53:12.577Z,42.08
2023-05-05T10:55:52.956Z,42.00
2023-05-05T10:58:44.103Z,45.79
2023-05-05T11:01:36.563Z,41.46
2023-05-05T11:04:19.392Z,41.16
2023-05-05T11:07:08.773Z,42.86
2023-05-05T11:09:55.196Z,42.08
2023-05-05T11:12:22.192Z,43.92
2023-05-05T11:15:26.942Z,42.66
2023-05-05T11:17:55.630Z,42.02
2023-05-05T11:20:57.735Z,44.47
2023-05-05T11:23:25.570Z,43.87
2023-05-05T11:25:53.217Z,42.06
2023-05-05T11:28:25.954Z,42.33
2023-05-05T11:30:56.063Z,42.19
2023-05-05T11:33:37.182Z,41.48
2023-05-05T11:36:08.762Z,40.98
2023-05-05T11:38:57.285Z,42.32
2023-05-05T11:41:33.359Z,42.15
2023-05-05T11:44:12.182Z,42.97
2023-05-05T11:47:04.546Z,42.07
2023-05-05T11:49:38.954Z,41.61
2023-05-05T11:52:10.352Z,42.52
2023-05-05T11:54:40.670Z,42.29
2023-05-05T11:57:08.579Z,40.84
2023-05-05T11:59:37.692Z,41.96
2023-05-05T12:02:05.251Z,41.97
2023-05-05T12:04:32.426Z,40.08
2023-05-05T12:07:00.193Z,41.37
2023-05-05T12:09:27.681Z,41.68
2023-05-05T12:11:56.624Z,42.52
2023-05-05T12:14:24.884Z,42.23
2023-05-05T12:16:58.713Z,43.88
2023-05-05T12:19:33.133Z,41.73
2023-05-05T12:22:01.948Z,41.86
2023-05-05T12:24:30.581Z,43.64
2023-05-05T12:27:11.119Z,42.41
2023-05-05T12:29:38.429Z,40.29
2023-05-05T12:32:05.764Z,39.80
2023-05-05T12:34:33.308Z,37.39
2023-05-05T12:37:01.129Z,37.62
2023-05-05T12:39:37.481Z,36.64
2023-05-05T12:42:05.145Z,37.85
2023-05-05T12:44:36.409Z,38.79
2023-05-05T12:47:03.915Z,39.87
2023-05-05T12:49:34.236Z,38.87
2023-05-05T12:52:02.782Z,37.88
2023-05-05T12:54:30.049Z,37.96
2023-05-05T12:56:57.469Z,37.54
2023-05-05T12:59:24.579Z,36.93
2023-05-05T13:02:17.250Z,35.50
2023-05-05T13:04:52.614Z,34.89
2023-05-05T13:07:21.252Z,35.97
2023-05-05T13:09:49.570Z,37.16
2023-05-05T13:12:18.095Z,36.44
2023-05-05T13:14:46.827Z,37.00
2023-05-05T13:17:14.293Z,37.38
2023-05-05T13:19:47.673Z,38.01
2023-05-05T13:22:14.649Z,38.25
2023-05-05T13:24:51.520Z,37.45
2023-05-05T13:27:20.135Z,37.45
2023-05-05T13:29:46.988Z,38.07
2023-05-05T13:32:14.086Z,37.54
2023-05-05T13:34:41.711Z,37.18
2023-05-05T13:37:08.843Z,35.89
2023-05-05T13:39:36.108Z,36.49
2023-05-05T13:42:03.206Z,36.89
2023-05-05T13:44:30.014Z,37.42
2023-05-05T13:46:56.965Z,38.95
2023-05-05T13:49:24.062Z,37.76
2023-05-05T13:51:50.932Z,38.18
2023-05-05T13:54:17.846Z,37.38
2023-05-05T13:56:44.781Z,37.61
2023-05-05T13:59:11.633Z,37.83
2023-05-05T14:01:38.708Z,37.35
2023-05-05T14:04:06.115Z,37.47
2023-05-05T14:06:33.878Z,36.96
2023-05-05T14:09:00.959Z,36.31
2023-05-05T14:11:27.967Z,36.28
2023-05-05T14:13:54.961Z,36.99
2023-05-05T14:16:22.119Z,37.04
2023-05-05T14:18:49.156Z,37.15
2023-05-05T14:21:15.964Z,36.93
2023-05-05T14:23:42.845Z,36.39
2023-05-05T14:26:09.852Z,36.17
2023-05-05T14:28:36.721Z,35.70
2023-05-05T14:31:03.607Z,35.52
2023-05-05T14:33:30.507Z,36.49
2023-05-05T14:35:57.677Z,36.41
2023-05-05T14:38:24.710Z,35.78
2023-05-05T14:40:54.746Z,34.09
2023-05-05T14:43:22.039Z,35.56
2023-05-05T14:45:49.009Z,34.00
2023-05-05T14:48:16.040Z,34.54
2023-05-05T14:50:42.927Z,36.93
2023-05-05T14:53:09.774Z,35.99
2023-05-05T14:55:37.422Z,35.94
2023-05-05T14:58:04.310Z,36.34
2023-05-05T15:00:31.274Z,36.83
2023-05-05T15:02:58.207Z,36.68
2023-05-05T15:05:25.114Z,35.41
2023-05-05T15:07:52.104Z,35.65
2023-05-05T15:10:21.227Z,37.77
2023-05-05T15:12:49.056Z,37.50
2023-05-05T15:15:15.927Z,37.66
2023-05-05T15:17:43.323Z,37.17
2023-05-05T15:20:10.635Z,37.22
2023-05-05T15:22:37.608Z,36.58
2023-05-05T15:25:04.972Z,35.86
2023-05-05T15:27:31.915Z,34.69
2023-05-05T15:29:58.836Z,35.92
2023-05-05T15:32:25.842Z,34.66
2023-05-05T15:34:52.760Z,36.18
2023-05-05T15:37:19.576Z,34.37
2023-05-05T15:39:46.516Z,33.73
2023-05-05T15:42:13.493Z,34.31
2023-05-05T15:44:40.373Z,34.43
2023-05-05T15:47:07.644Z,35.30
2023-05-05T15:49:34.622Z,36.45
2023-05-05T15:52:01.530Z,36.77
2023-05-05T15:54:28.553Z,36.90
2023-05-05T15:56:55.454Z,37.00
2023-05-05T15:59:22.952Z,36.75
2023-05-05T16:01:49.833Z,35.89
2023-05-05T16:04:16.818Z,37.93
2023-05-05T16:06:43.821Z,36.64
2023-05-05T16:09:10.735Z,36.29
2023-05-05T16:11:37.650Z,36.49
2023-05-05T16:14:04.553Z,36.10
2023-05-05T16:16:31.601Z,36.10
2023-05-05T16:18:58.523Z,38.09
2023-05-05T16:21:25.766Z,36.13
2023-05-05T16:23:52.664Z,36.28
2023-05-05T16:26:20.032Z,36.63
2023-05-05T16:28:47.084Z,36.61
2023-05-05T16:31:14.345Z,37.04
2023-05-05T16:33:43.661Z,37.48
2023-05-05T16:36:12.503Z,37.90
2023-05-05T16:38:40.517Z,38.31
2023-05-05T16:41:07.875Z,38.59
2023-05-05T16:43:37.283Z,38.90
2023-05-05T16:46:04.595Z,39.50
2023-05-05T16:48:31.804Z,39.58
2023-05-05T16:50:58.889Z,39.73
2023-05-05T16:53:26.151Z,40.35
2023-05-05T16:55:53.737Z,40.48
2023-05-05T16:58:22.942Z,40.87
2023-05-05T17:00:51.128Z,41.51
2023-05-05T17:03:21.646Z,41.47
2023-05-05T17:05:50.292Z,42.18
2023-05-05T17:08:17.604Z,42.40
2023-05-05T17:10:45.757Z,42.22
2023-05-05T17:13:13.985Z,42.61
2023-05-05T17:15:41.568Z,43.09
2023-05-05T17:18:08.931Z,43.79
2023-05-05T17:20:38.756Z,44.12
2023-05-05T17:23:05.807Z,44.41
2023-05-05T17:25:32.694Z,44.69
2023-05-05T17:27:59.535Z,45.45
2023-05-05T17:30:26.859Z,45.82
2023-05-05T17:32:53.839Z,46.49
2023-05-05T17:35:21.401Z,46.32
2023-05-05T17:37:48.386Z,46.47
2023-05-05T17:40:15.324Z,46.99
2023-05-05T17:42:42.287Z,47.02
2023-05-05T17:45:09.938Z,47.01
2023-05-05T17:47:37.543Z,47.63
2023-05-05T17:50:05.101Z,48.67
2023-05-05T17:52:32.069Z,50.37
2023-05-05T17:54:58.876Z,51.76
2023-05-05T17:57:25.670Z,52.91
2023-05-05T17:59:53.769Z,53.35
2023-05-05T18:02:20.956Z,54.41
2023-05-05T18:04:47.935Z,55.79
2023-05-05T18:07:14.957Z,57.91
2023-05-05T18:09:42.358Z,57.35
2023-05-05T18:12:09.232Z,56.77
2023-05-05T18:14:36.404Z,57.64
2023-05-05T18:17:03.333Z,58.39
2023-05-05T18:19:30.341Z,58.63
2023-05-05T18:21:59.993Z,58.69
2023-05-05T18:24:28.214Z,58.27
2023-05-05T18:26:55.055Z,59.09
2023-05-05T18:29:22.559Z,58.29
2023-05-05T18:31:53.155Z,58.68
2023-05-05T18:34:21.017Z,59.32
2023-05-05T18:36:51.010Z,58.92
2023-05-05T18:39:18.031Z,58.55
2023-05-05T18:41:44.939Z,58.19
2023-05-05T18:44:12.120Z,58.47
2023-05-05T18:46:39.011Z,58.63
2023-05-05T18:49:05.965Z,59.09
2023-05-05T18:51:32.895Z,60.51
2023-05-05T18:54:01.026Z,61.27
2023-05-05T18:56:28.034Z,61.17
2023-05-05T18:58:54.988Z,62.15
2023-05-05T19:01:22.317Z,62.83
2023-05-05T19:03:49.979Z,63.58
2023-05-05T19:06:17.634Z,64.20
2023-05-05T19:08:45.746Z,65.49
2023-05-05T19:11:14.686Z,66.34
2023-05-05T19:13:42.046Z,67.06
2023-05-05T19:16:08.913Z,66.48
2023-05-05T19:18:35.791Z,66.48
2023-05-05T19:21:02.776Z,66.55
2023-05-05T19:23:29.567Z,66.91
2023-05-05T19:25:56.539Z,67.64
2023-05-05T19:28:23.451Z,67.97
2023-05-05T19:30:50.261Z,68.79
2023-05-05T19:33:17.102Z,69.35
2023-05-05T19:35:44.770Z,68.71
2023-05-05T19:38:12.132Z,68.66
2023-05-05T19:40:39.887Z,68.92
2023-05-05T19:43:07.641Z,69.36
2023-05-05T19:45:34.499Z,68.91
2023-05-05T19:48:01.888Z,69.60
2023-05-05T19:50:30.883Z,70.20
2023-05-05T19:52:58.166Z,70.13
2023-05-05T19:55:25.067Z,71.47
2023-05-05T19:57:52.520Z,70.96
2023-05-05T20:00:19.923Z,71.39
2023-05-05T20:02:48.724Z,71.58
2023-05-05T20:05:17.611Z,71.60
2023-05-05T20:07:46.446Z,72.71
2023-05-05T20:10:13.722Z,72.03
2023-05-05T20:12:47.940Z,72.17
2023-05-05T20:15:19.407Z,73.24
2023-05-05T20:17:47.773Z,74.09
2023-05-05T20:20:21.146Z,74.47
2023-05-05T20:22:49.207Z,74.23
2023-05-05T20:25:18.993Z,74.30
2023-05-05T20:27:46.042Z,75.04
2023-05-05T20:30:13.551Z,75.34
2023-05-05T20:32:40.816Z,75.88
2023-05-05T20:35:08.476Z,75.80
2023-05-05T20:37:35.413Z,75.32
2023-05-05T20:40:02.464Z,75.71
2023-05-05T20:42:29.925Z,75.83
2023-05-05T20:44:57.088Z,75.27
2023-05-05T20:47:24.463Z,74.36
2023-05-05T20:49:52.540Z,75.95
2023-05-05T20:52:19.622Z,76.91
2023-05-05T20:54:46.635Z,77.65
2023-05-05T20:57:13.532Z,77.18
2023-05-05T20:59:40.543Z,77.30
2023-05-05T21:02:07.893Z,76.72
2023-05-05T21:04:34.840Z,76.49
2023-05-05T21:07:01.912Z,75.71
2023-05-05T21:09:29.139Z,75.15
2023-05-05T21:11:55.961Z,76.04
2023-05-05T21:14:23.587Z,76.02
2023-05-05T21:16:50.687Z,76.26
2023-05-05T21:19:29.849Z,76.75
2023-05-05T21:21:59.284Z,76.08
2023-05-05T21:24:26.230Z,77.49
2023-05-05T21:26:53.089Z,77.66
2023-05-05T21:29:19.918Z,78.63
2023-05-05T21:31:46.721Z,78.03
2023-05-05T21:34:13.601Z,78.81
2023-05-05T21:36:40.375Z,78.56
2023-05-05T21:39:07.200Z,78.47
2023-05-05T21:41:34.050Z,78.98
2023-05-05T21:44:00.923Z,78.75
2023-05-05T21:46:27.902Z,79.38
2023-05-05T21:48:54.842Z,79.24
2023-05-05T21:51:23.556Z,80.05
2023-05-05T21:53:50.521Z,80.02
2023-05-05T21:56:18.495Z,80.29
2023-05-05T21:58:45.406Z,80.79
2023-05-05T22:01:12.296Z,81.49
2023-05-05T22:03:39.330Z,81.95
2023-05-05T22:06:07.331Z,81.69
2023-05-05T22:08:34.213Z,82.56
2023-05-05T22:11:07.240Z,83.66
2023-05-05T22:13:34.130Z,84.17
2023-05-05T22:16:09.820Z,84.02
2023-05-05T22:18:37.072Z,84.47
2023-05-05T22:21:09.946Z,84.38
2023-05-05T22:23:42.070Z,83.83
2023-05-05T22:26:12.326Z,83.94
2023-05-05T22:28:39.275Z,84.00
2023-05-05T22:31:06.173Z,84.53
2023-05-05T22:33:34.322Z,85.58
2023-05-05T22:36:02.320Z,85.44
2023-05-05T22:38:29.441Z,84.51
2023-05-05T22:40:57.437Z,84.51
2023-05-05T22:43:24.333Z,84.37
2023-05-05T22:45:51.402Z,84.46
2023-05-05T22:48:18.450Z,84.56
2023-05-05T22:50:45.845Z,84.71
2023-05-05T22:53:14.720Z,84.11
2023-05-05T22:55:42.693Z,83.79
2023-05-05T22:58:10.634Z,84.07
2023-05-05T23:00:37.653Z,83.65
2023-05-05T23:03:04.873Z,83.92
2023-05-05T23:05:32.105Z,84.73
2023-05-05T23:08:01.420Z,85.13
2023-05-05T23:10:30.232Z,85.47
2023-05-05T23:12:57.148Z,84.66
2023-05-05T23:15:25.159Z,84.05
2023-05-05T23:17:54.262Z,83.29
2023-05-05T23:20:21.558Z,83.45
2023-05-05T23:22:48.529Z,83.25
2023-05-05T23:25:15.314Z,82.74
2023-05-05T23:27:44.036Z,82.62
2023-05-05T23:30:17.054Z,83.61
2023-05-05T23:32:45.128Z,83.88
2023-05-05T23:35:12.328Z,84.66
2023-05-05T23:37:45.516Z,85.26
2023-05-05T23:40:13.491Z,85.25
2023-05-05T23:42:42.416Z,85.12
2023-05-05T23:45:10.034Z,85.12
2023-05-05T23:47:37.254Z,84.96
2023-05-05T23:50:04.544Z,85.45
2023-05-05T23:52:31.492Z,85.39
2023-05-05T23:54:59.552Z,85.50
2023-05-05T23:57:26.516Z,86.02
2023-05-05T23:59:59.478Z,85.62
